sensor_id;sensor_type;location;lat;lon;timestamp;P1;P2;P0
76483;PMS5003;65318;-33.924;18.406;2023-06-26T00:01:11;3;3;
76483;PMS5003;65318;-33.924;18.406;2023-06-26T00:03:37;2;2;
76483;PMS5003;65318;-33.924;18.406;2023-06-26T00:06:02;4;4;
76483;PMS5003;65318;-33.924;18.406;2023-06-26T00:08:28;3;3;
76483;PMS5003;65318;-33.924;18.406;2023-06-26T00:10:53;2;2;
76483;PMS5003;65318;-33.924;18.406;2023-06-26T00:13:19;3;3;
76483;PMS5003;65318;-33.924;18.406;2023-06-26T00:15:44;2;2;
76483;PMS5003;65318;-33.924;18.406;2023-06-26T00:18:10;3;3;
76483;PMS5003;65318;-33.924;18.406;2023-06-26T00:20:36;4;4;
76483;PMS5003;65318;-33.924;18.406;2023-06-26T00:23:01;3;3;
76483;PMS5003;65318;-33.924;18.406;2023-06-26T00:25:27;4;4;
76483;PMS5003;65318;-33.924;18.406;2023-06-26T00:27:52;4;4;
76483;PMS5003;65318;-33.924;18.406;2023-06-26T00:30:18;2;2;
76483;PMS5003;65318;-33.924;18.406;2023-06-26T00:32:43;4;2;
76483;PMS5003;65318;-33.924;18.406;2023-06-26T00:35:09;4;3;
76483;PMS5003;65318;-33.924;18.406;2023-06-26T00:37:34;3;3;
76483;PMS5003;65318;-33.924;18.406;2023-06-26T00:40:00;3;3;
76483;PMS5003;65318;-33.924;18.406;2023-06-26T00:42:26;4;3;
76483;PMS5003;65318;-33.924;18.406;2023-06-26T00:44:51;3;2;
76483;PMS5003;65318;-33.924;18.406;2023-06-26T00:47:17;4;4;
76483;PMS5003;65318;-33.924;18.406;2023-06-26T00:49:42;2;2;
76483;PMS5003;65318;-33.924;18.406;2023-06-26T00:52:08;2;2;
76483;PMS5003;65318;-33.924;18.406;2023-06-26T00:54:33;3;3;
76483;PMS5003;65318;-33.924;18.406;2023-06-26T00:56:59;2;2;
76483;PMS5003;65318;-33.924;18.406;2023-06-26T00:59:25;2;2;
76483;PMS5003;65318;-33.924;18.406;2023-06-26T01:01:50;1;1;
76483;PMS5003;65318;-33.924;18.406;2023-06-26T01:04:16;4;3;
76483;PMS5003;65318;-33.924;18.406;2023-06-26T01:06:41;4;4;
76483;PMS5003;65318;-33.924;18.406;2023-06-26T01:09:07;2;2;
76483;PMS5003;65318;-33.924;18.406;2023-06-26T01:11:32;2;2;
76483;PMS5003;65318;-33.924;18.406;2023-06-26T01:13:58;3;3;
76483;PMS5003;65318;-33.924;18.406;2023-06-26T01:16:23;3;3;
76483;PMS5003;65318;-33.924;18.406;2023-06-26T01:18:49;2;2;
76483;PMS5003;65318;-33.924;18.406;2023-06-26T01:21:14;3;3;
76483;PMS5003;65318;-33.924;18.406;2023-06-26T01:23:45;2;2;
76483;PMS5003;65318;-33.924;18.406;2023-06-26T01:26:11;2;2;
76483;PMS5003;65318;-33.924;18.406;2023-06-26T01:28:31;3;3;
76483;PMS5003;65318;-33.924;18.406;2023-06-26T01:30:57;2;2;
76483;PMS5003;65318;-33.924;18.406;2023-06-26T01:33:22;3;3;
76483;PMS5003;65318;-33.924;18.406;2023-06-26T01:35:48;2;2;
76483;PMS5003;65318;-33.924;18.406;2023-06-26T01:38:14;4;4;
76483;PMS5003;65318;-33.924;18.406;2023-06-26T01:40:39;4;3;
76483;PMS5003;65318;-33.924;18.406;2023-06-26T01:43:05;3;3;
76483;PMS5003;65318;-33.924;18.406;2023-06-26T01:45:30;2;2;
76483;PMS5003;65318;-33.924;18.406;2023-06-26T01:47:56;2;1;
76483;PMS5003;65318;-33.924;18.406;2023-06-26T01:50:22;3;3;
76483;PMS5003;65318;-33.924;18.406;2023-06-26T01:52:49;2;2;
76483;PMS5003;65318;-33.924;18.406;2023-06-26T01:55:15;2;2;
76483;PMS5003;65318;-33.924;18.406;2023-06-26T01:57:38;2;2;
76483;PMS5003;65318;-33.924;18.406;2023-06-26T02:00:04;2;2;
76483;PMS5003;65318;-33.924;18.406;2023-06-26T02:02:29;2;2;
76483;PMS5003;65318;-33.924;18.406;2023-06-26T02:04:55;3;3;
76483;PMS5003;65318;-33.924;18.406;2023-06-26T02:07:20;2;2;
76483;PMS5003;65318;-33.924;18.406;2023-06-26T02:09:46;1;1;
76483;PMS5003;65318;-33.924;18.406;2023-06-26T02:12:11;1;1;
76483;PMS5003;65318;-33.924;18.406;2023-06-26T02:14:42;3;3;
76483;PMS5003;65318;-33.924;18.406;2023-06-26T02:17:02;2;2;
76483;PMS5003;65318;-33.924;18.406;2023-06-26T02:19:28;3;2;
76483;PMS5003;65318;-33.924;18.406;2023-06-26T02:21:53;2;2;
76483;PMS5003;65318;-33.924;18.406;2023-06-26T02:24:19;3;3;
76483;PMS5003;65318;-33.924;18.406;2023-06-26T02:26:44;3;3;
76483;PMS5003;65318;-33.924;18.406;2023-06-26T02:29:10;3;3;
76483;PMS5003;65318;-33.924;18.406;2023-06-26T02:31:35;3;3;
76483;PMS5003;65318;-33.924;18.406;2023-06-26T02:34:01;3;2;
76483;PMS5003;65318;-33.924;18.406;2023-06-26T02:36:27;2;2;
76483;PMS5003;65318;-33.924;18.406;2023-06-26T02:38:52;1;1;
76483;PMS5003;65318;-33.924;18.406;2023-06-26T02:41:17;4;3;
76483;PMS5003;65318;-33.924;18.406;2023-06-26T02:43:43;3;2;
76483;PMS5003;65318;-33.924;18.406;2023-06-26T02:46:09;2;2;
76483;PMS5003;65318;-33.924;18.406;2023-06-26T02:48:34;3;2;
76483;PMS5003;65318;-33.924;18.406;2023-06-26T02:51:00;1;0;
76483;PMS5003;65318;-33.924;18.406;2023-06-26T02:53:25;2;2;
76483;PMS5003;65318;-33.924;18.406;2023-06-26T02:55:51;2;2;
76483;PMS5003;65318;-33.924;18.406;2023-06-26T02:58:16;2;2;
76483;PMS5003;65318;-33.924;18.406;2023-06-26T03:00:42;2;2;
76483;PMS5003;65318;-33.924;18.406;2023-06-26T03:03:07;3;2;
76483;PMS5003;65318;-33.924;18.406;2023-06-26T03:05:33;3;3;
76483;PMS5003;65318;-33.924;18.406;2023-06-26T03:07:58;2;2;
76483;PMS5003;65318;-33.924;18.406;2023-06-26T03:10:23;2;2;
76483;PMS5003;65318;-33.924;18.406;2023-06-26T03:12:49;3;2;
76483;PMS5003;65318;-33.924;18.406;2023-06-26T03:15:14;1;1;
76483;PMS5003;65318;-33.924;18.406;2023-06-26T03:17:40;2;2;
76483;PMS5003;65318;-33.924;18.406;2023-06-26T03:20:06;1;1;
76483;PMS5003;65318;-33.924;18.406;2023-06-26T03:22:31;2;2;
76483;PMS5003;65318;-33.924;18.406;2023-06-26T03:24:57;2;2;
76483;PMS5003;65318;-33.924;18.406;2023-06-26T03:27:22;2;2;
76483;PMS5003;65318;-33.924;18.406;2023-06-26T03:29:48;2;2;
76483;PMS5003;65318;-33.924;18.406;2023-06-26T03:32:13;1;1;
76483;PMS5003;65318;-33.924;18.406;2023-06-26T03:34:39;2;2;
76483;PMS5003;65318;-33.924;18.406;2023-06-26T03:37:05;1;1;
76483;PMS5003;65318;-33.924;18.406;2023-06-26T03:39:30;2;2;
76483;PMS5003;65318;-33.924;18.406;2023-06-26T03:41:55;2;2;
76483;PMS5003;65318;-33.924;18.406;2023-06-26T03:44:22;1;1;
76483;PMS5003;65318;-33.924;18.406;2023-06-26T03:46:46;1;1;
76483;PMS5003;65318;-33.924;18.406;2023-06-26T03:49:12;1;1;
76483;PMS5003;65318;-33.924;18.406;2023-06-26T03:51:37;2;2;
76483;PMS5003;65318;-33.924;18.406;2023-06-26T03:54:03;3;2;
76483;PMS5003;65318;-33.924;18.406;2023-06-26T03:56:29;3;2;
76483;PMS5003;65318;-33.924;18.406;2023-06-26T03:58:54;3;3;
76483;PMS5003;65318;-33.924;18.406;2023-06-26T04:01:20;2;2;
76483;PMS5003;65318;-33.924;18.406;2023-06-26T04:03:45;2;2;
76483;PMS5003;65318;-33.924;18.406;2023-06-26T04:06:11;2;2;
76483;PMS5003;65318;-33.924;18.406;2023-06-26T04:08:36;2;2;
76483;PMS5003;65318;-33.924;18.406;2023-06-26T04:11:02;1;1;
76483;PMS5003;65318;-33.924;18.406;2023-06-26T04:13:27;2;2;
76483;PMS5003;65318;-33.924;18.406;2023-06-26T04:15:53;2;2;
76483;PMS5003;65318;-33.924;18.406;2023-06-26T04:18:18;3;3;
76483;PMS5003;65318;-33.924;18.406;2023-06-26T04:23:09;2;1;
76483;PMS5003;65318;-33.924;18.406;2023-06-26T04:25:35;0;0;
76483;PMS5003;65318;-33.924;18.406;2023-06-26T04:28:00;3;3;
76483;PMS5003;65318;-33.924;18.406;2023-06-26T04:30:26;2;2;
76483;PMS5003;65318;-33.924;18.406;2023-06-26T04:32:52;2;2;
76483;PMS5003;65318;-33.924;18.406;2023-06-26T04:35:17;2;2;
76483;PMS5003;65318;-33.924;18.406;2023-06-26T04:37:43;1;1;
76483;PMS5003;65318;-33.924;18.406;2023-06-26T04:40:09;0;0;
76483;PMS5003;65318;-33.924;18.406;2023-06-26T04:42:34;1;1;
76483;PMS5003;65318;-33.924;18.406;2023-06-26T04:44:59;1;1;
76483;PMS5003;65318;-33.924;18.406;2023-06-26T04:47:25;2;1;
76483;PMS5003;65318;-33.924;18.406;2023-06-26T04:49:51;4;3;
76483;PMS5003;65318;-33.924;18.406;2023-06-26T04:52:16;2;2;
76483;PMS5003;65318;-33.924;18.406;2023-06-26T04:54:41;1;1;
76483;PMS5003;65318;-33.924;18.406;2023-06-26T04:57:07;2;2;
76483;PMS5003;65318;-33.924;18.406;2023-06-26T04:59:32;1;1;
76483;PMS5003;65318;-33.924;18.406;2023-06-26T05:01:58;2;2;
76483;PMS5003;65318;-33.924;18.406;2023-06-26T05:04:24;1;1;
76483;PMS5003;65318;-33.924;18.406;2023-06-26T05:06:49;1;1;
76483;PMS5003;65318;-33.924;18.406;2023-06-26T05:09:15;2;2;
76483;PMS5003;65318;-33.924;18.406;2023-06-26T05:11:40;0;0;
76483;PMS5003;65318;-33.924;18.406;2023-06-26T05:14:06;2;2;
76483;PMS5003;65318;-33.924;18.406;2023-06-26T05:16:31;2;1;
76483;PMS5003;65318;-33.924;18.406;2023-06-26T05:18:57;3;3;
76483;PMS5003;65318;-33.924;18.406;2023-06-26T05:21:22;1;1;
76483;PMS5003;65318;-33.924;18.406;2023-06-26T05:23:48;2;2;
76483;PMS5003;65318;-33.924;18.406;2023-06-26T05:26:14;1;1;
76483;PMS5003;65318;-33.924;18.406;2023-06-26T05:28:39;2;2;
76483;PMS5003;65318;-33.924;18.406;2023-06-26T05:31:05;1;1;
76483;PMS5003;65318;-33.924;18.406;2023-06-26T05:33:30;1;1;
76483;PMS5003;65318;-33.924;18.406;2023-06-26T05:35:56;3;3;
76483;PMS5003;65318;-33.924;18.406;2023-06-26T05:38:22;2;2;
76483;PMS5003;65318;-33.924;18.406;2023-06-26T05:40:47;2;1;
76483;PMS5003;65318;-33.924;18.406;2023-06-26T05:43:12;2;2;
76483;PMS5003;65318;-33.924;18.406;2023-06-26T05:45:38;2;2;
76483;PMS5003;65318;-33.924;18.406;2023-06-26T05:48:03;1;1;
76483;PMS5003;65318;-33.924;18.406;2023-06-26T05:50:29;2;2;
76483;PMS5003;65318;-33.924;18.406;2023-06-26T05:52:55;2;2;
76483;PMS5003;65318;-33.924;18.406;2023-06-26T05:55:20;1;1;
76483;PMS5003;65318;-33.924;18.406;2023-06-26T05:57:46;2;2;
76483;PMS5003;65318;-33.924;18.406;2023-06-26T06:00:11;2;2;
76483;PMS5003;65318;-33.924;18.406;2023-06-26T06:02:37;1;1;
76483;PMS5003;65318;-33.924;18.406;2023-06-26T06:05:02;2;2;
76483;PMS5003;65318;-33.924;18.406;2023-06-26T06:07:28;2;2;
76483;PMS5003;65318;-33.924;18.406;2023-06-26T06:09:53;2;2;
76483;PMS5003;65318;-33.924;18.406;2023-06-26T06:12:19;0;0;
76483;PMS5003;65318;-33.924;18.406;2023-06-26T06:14:44;2;2;
76483;PMS5003;65318;-33.924;18.406;2023-06-26T06:17:10;2;2;
76483;PMS5003;65318;-33.924;18.406;2023-06-26T06:19:35;3;2;
76483;PMS5003;65318;-33.924;18.406;2023-06-26T06:22:01;2;1;
76483;PMS5003;65318;-33.924;18.406;2023-06-26T06:24:26;2;2;
76483;PMS5003;65318;-33.924;18.406;2023-06-26T06:26:52;2;2;
76483;PMS5003;65318;-33.924;18.406;2023-06-26T06:29:17;2;2;
76483;PMS5003;65318;-33.924;18.406;2023-06-26T06:31:43;2;2;
76483;PMS5003;65318;-33.924;18.406;2023-06-26T06:34:08;1;1;
76483;PMS5003;65318;-33.924;18.406;2023-06-26T06:36:34;2;2;
76483;PMS5003;65318;-33.924;18.406;2023-06-26T06:39:00;3;3;
76483;PMS5003;65318;-33.924;18.406;2023-06-26T06:41:25;2;2;
76483;PMS5003;65318;-33.924;18.406;2023-06-26T06:43:51;2;2;
76483;PMS5003;65318;-33.924;18.406;2023-06-26T06:46:16;4;2;
76483;PMS5003;65318;-33.924;18.406;2023-06-26T06:48:42;2;2;
76483;PMS5003;65318;-33.924;18.406;2023-06-26T06:51:07;2;2;
76483;PMS5003;65318;-33.924;18.406;2023-06-26T06:53:33;3;3;
76483;PMS5003;65318;-33.924;18.406;2023-06-26T06:55:58;2;2;
76483;PMS5003;65318;-33.924;18.406;2023-06-26T06:58:24;2;2;
76483;PMS5003;65318;-33.924;18.406;2023-06-26T07:00:49;1;1;
76483;PMS5003;65318;-33.924;18.406;2023-06-26T07:03:15;2;2;
76483;PMS5003;65318;-33.924;18.406;2023-06-26T07:05:41;0;0;
76483;PMS5003;65318;-33.924;18.406;2023-06-26T07:08:06;0;0;
76483;PMS5003;65318;-33.924;18.406;2023-06-26T07:10:32;1;1;
76483;PMS5003;65318;-33.924;18.406;2023-06-26T07:12:57;2;2;
76483;PMS5003;65318;-33.924;18.406;2023-06-26T07:15:23;1;1;
76483;PMS5003;65318;-33.924;18.406;2023-06-26T07:17:48;2;1;
76483;PMS5003;65318;-33.924;18.406;2023-06-26T07:20:14;2;1;
76483;PMS5003;65318;-33.924;18.406;2023-06-26T07:22:39;2;2;
76483;PMS5003;65318;-33.924;18.406;2023-06-26T07:25:05;1;1;
76483;PMS5003;65318;-33.924;18.406;2023-06-26T07:27:30;1;1;
76483;PMS5003;65318;-33.924;18.406;2023-06-26T07:29:56;3;3;
76483;PMS5003;65318;-33.924;18.406;2023-06-26T07:32:21;2;2;
76483;PMS5003;65318;-33.924;18.406;2023-06-26T07:34:47;1;1;
76483;PMS5003;65318;-33.924;18.406;2023-06-26T07:37:12;4;3;
76483;PMS5003;65318;-33.924;18.406;2023-06-26T07:39:38;2;2;
76483;PMS5003;65318;-33.924;18.406;2023-06-26T07:42:03;2;2;
76483;PMS5003;65318;-33.924;18.406;2023-06-26T07:44:29;2;2;
76483;PMS5003;65318;-33.924;18.406;2023-06-26T07:46:54;3;2;
76483;PMS5003;65318;-33.924;18.406;2023-06-26T07:49:20;2;2;
76483;PMS5003;65318;-33.924;18.406;2023-06-26T07:51:45;2;2;
76483;PMS5003;65318;-33.924;18.406;2023-06-26T07:54:11;2;2;
76483;PMS5003;65318;-33.924;18.406;2023-06-26T07:56:52;4;3;
76483;PMS5003;65318;-33.924;18.406;2023-06-26T07:59:02;3;3;
76483;PMS5003;65318;-33.924;18.406;2023-06-26T08:01:27;2;2;
76483;PMS5003;65318;-33.924;18.406;2023-06-26T08:03:53;1;1;
76483;PMS5003;65318;-33.924;18.406;2023-06-26T08:06:19;3;2;
76483;PMS5003;65318;-33.924;18.406;2023-06-26T08:08:44;4;4;
76483;PMS5003;65318;-33.924;18.406;2023-06-26T08:11:09;4;3;
76483;PMS5003;65318;-33.924;18.406;2023-06-26T08:13:36;3;2;
76483;PMS5003;65318;-33.924;18.406;2023-06-26T08:16:00;5;2;
76483;PMS5003;65318;-33.924;18.406;2023-06-26T08:18:26;3;2;
76483;PMS5003;65318;-33.924;18.406;2023-06-26T08:20:51;2;2;
76483;PMS5003;65318;-33.924;18.406;2023-06-26T08:23:17;3;3;
76483;PMS5003;65318;-33.924;18.406;2023-06-26T08:25:42;2;2;
76483;PMS5003;65318;-33.924;18.406;2023-06-26T08:28:08;4;3;
76483;PMS5003;65318;-33.924;18.406;2023-06-26T08:30:33;2;2;
76483;PMS5003;65318;-33.924;18.406;2023-06-26T08:32:58;2;2;
76483;PMS5003;65318;-33.924;18.406;2023-06-26T08:35:24;4;4;
76483;PMS5003;65318;-33.924;18.406;2023-06-26T08:37:49;3;3;
76483;PMS5003;65318;-33.924;18.406;2023-06-26T08:40:16;3;2;
76483;PMS5003;65318;-33.924;18.406;2023-06-26T08:42:40;2;2;
76483;PMS5003;65318;-33.924;18.406;2023-06-26T08:45:06;2;2;
76483;PMS5003;65318;-33.924;18.406;2023-06-26T08:47:32;5;5;
76483;PMS5003;65318;-33.924;18.406;2023-06-26T08:50:00;2;2;
76483;PMS5003;65318;-33.924;18.406;2023-06-26T08:52:23;3;2;
76483;PMS5003;65318;-33.924;18.406;2023-06-26T08:54:49;3;3;
76483;PMS5003;65318;-33.924;18.406;2023-06-26T08:57:14;3;3;
76483;PMS5003;65318;-33.924;18.406;2023-06-26T08:59:39;4;4;
76483;PMS5003;65318;-33.924;18.406;2023-06-26T09:02:04;3;3;
76483;PMS5003;65318;-33.924;18.406;2023-06-26T09:04:30;3;3;
76483;PMS5003;65318;-33.924;18.406;2023-06-26T09:06:55;6;5;
76483;PMS5003;65318;-33.924;18.406;2023-06-26T09:11:46;4;4;
76483;PMS5003;65318;-33.924;18.406;2023-06-26T09:14:12;3;3;
76483;PMS5003;65318;-33.924;18.406;2023-06-26T09:16:40;5;5;
76483;PMS5003;65318;-33.924;18.406;2023-06-26T09:19:03;4;4;
76483;PMS5003;65318;-33.924;18.406;2023-06-26T09:21:28;4;4;
76483;PMS5003;65318;-33.924;18.406;2023-06-26T09:23:54;3;3;
76483;PMS5003;65318;-33.924;18.406;2023-06-26T09:26:19;4;3;
76483;PMS5003;65318;-33.924;18.406;2023-06-26T09:28:45;5;5;
76483;PMS5003;65318;-33.924;18.406;2023-06-26T09:31:10;5;5;
76483;PMS5003;65318;-33.924;18.406;2023-06-26T09:33:36;5;5;
76483;PMS5003;65318;-33.924;18.406;2023-06-26T09:36:01;4;4;
76483;PMS5003;65318;-33.924;18.406;2023-06-26T09:38:27;10;9;
76483;PMS5003;65318;-33.924;18.406;2023-06-26T09:40:52;13;11;
76483;PMS5003;65318;-33.924;18.406;2023-06-26T09:43:18;11;10;
76483;PMS5003;65318;-33.924;18.406;2023-06-26T09:45:43;10;10;
76483;PMS5003;65318;-33.924;18.406;2023-06-26T09:48:09;7;7;
76483;PMS5003;65318;-33.924;18.406;2023-06-26T09:50:34;10;9;
76483;PMS5003;65318;-33.924;18.406;2023-06-26T09:53:03;5;5;
76483;PMS5003;65318;-33.924;18.406;2023-06-26T09:55:25;7;7;
76483;PMS5003;65318;-33.924;18.406;2023-06-26T09:57:51;5;5;
76483;PMS5003;65318;-33.924;18.406;2023-06-26T10:00:16;6;6;
76483;PMS5003;65318;-33.924;18.406;2023-06-26T10:02:42;5;5;
76483;PMS5003;65318;-33.924;18.406;2023-06-26T10:05:07;4;4;
76483;PMS5003;65318;-33.924;18.406;2023-06-26T10:07:32;5;4;
76483;PMS5003;65318;-33.924;18.406;2023-06-26T10:09:58;5;5;
76483;PMS5003;65318;-33.924;18.406;2023-06-26T10:12:25;4;4;
76483;PMS5003;65318;-33.924;18.406;2023-06-26T10:14:49;5;5;
76483;PMS5003;65318;-33.924;18.406;2023-06-26T10:17:16;6;5;
76483;PMS5003;65318;-33.924;18.406;2023-06-26T10:19:41;4;4;
76483;PMS5003;65318;-33.924;18.406;2023-06-26T10:22:05;6;4;
76483;PMS5003;65318;-33.924;18.406;2023-06-26T10:24:31;5;5;
76483;PMS5003;65318;-33.924;18.406;2023-06-26T10:26:57;6;6;
76483;PMS5003;65318;-33.924;18.406;2023-06-26T10:29:22;6;6;
76483;PMS5003;65318;-33.924;18.406;2023-06-26T10:31:49;4;4;
76483;PMS5003;65318;-33.924;18.406;2023-06-26T10:34:13;5;5;
76483;PMS5003;65318;-33.924;18.406;2023-06-26T10:36:38;6;4;
76483;PMS5003;65318;-33.924;18.406;2023-06-26T10:39:04;5;5;
76483;PMS5003;65318;-33.924;18.406;2023-06-26T10:41:30;4;4;
76483;PMS5003;65318;-33.924;18.406;2023-06-26T10:46:20;5;4;
76483;PMS5003;65318;-33.924;18.406;2023-06-26T10:51:13;4;4;
76483;PMS5003;65318;-33.924;18.406;2023-06-26T10:53:37;4;4;
76483;PMS5003;65318;-33.924;18.406;2023-06-26T10:56:03;4;3;
76483;PMS5003;65318;-33.924;18.406;2023-06-26T10:58:29;7;6;
76483;PMS5003;65318;-33.924;18.406;2023-06-26T11:00:53;5;5;
76483;PMS5003;65318;-33.924;18.406;2023-06-26T11:03:23;6;6;
76483;PMS5003;65318;-33.924;18.406;2023-06-26T11:05:44;4;4;
76483;PMS5003;65318;-33.924;18.406;2023-06-26T11:08:10;4;4;
76483;PMS5003;65318;-33.924;18.406;2023-06-26T11:13:01;5;4;
76483;PMS5003;65318;-33.924;18.406;2023-06-26T11:15:26;3;3;
76483;PMS5003;65318;-33.924;18.406;2023-06-26T11:17:52;4;4;
76483;PMS5003;65318;-33.924;18.406;2023-06-26T11:20:17;6;6;
76483;PMS5003;65318;-33.924;18.406;2023-06-26T11:22:43;4;4;
76483;PMS5003;65318;-33.924;18.406;2023-06-26T11:25:09;5;5;
76483;PMS5003;65318;-33.924;18.406;2023-06-26T11:27:37;4;4;
76483;PMS5003;65318;-33.924;18.406;2023-06-26T11:29:59;3;3;
76483;PMS5003;65318;-33.924;18.406;2023-06-26T11:32:26;3;3;
76483;PMS5003;65318;-33.924;18.406;2023-06-26T11:34:51;4;4;
76483;PMS5003;65318;-33.924;18.406;2023-06-26T11:37:17;6;5;
76483;PMS5003;65318;-33.924;18.406;2023-06-26T11:39:42;4;4;
76483;PMS5003;65318;-33.924;18.406;2023-06-26T11:42:07;8;7;
76483;PMS5003;65318;-33.924;18.406;2023-06-26T11:44:32;5;4;
76483;PMS5003;65318;-33.924;18.406;2023-06-26T11:46:58;4;4;
76483;PMS5003;65318;-33.924;18.406;2023-06-26T11:49:23;6;5;
76483;PMS5003;65318;-33.924;18.406;2023-06-26T11:51:49;2;2;
76483;PMS5003;65318;-33.924;18.406;2023-06-26T11:54:14;4;4;
76483;PMS5003;65318;-33.924;18.406;2023-06-26T11:56:40;6;5;
76483;PMS5003;65318;-33.924;18.406;2023-06-26T11:59:06;4;3;
76483;PMS5003;65318;-33.924;18.406;2023-06-26T12:01:31;5;5;
76483;PMS5003;65318;-33.924;18.406;2023-06-26T12:03:57;4;4;
76483;PMS5003;65318;-33.924;18.406;2023-06-26T12:06:22;3;3;
76483;PMS5003;65318;-33.924;18.406;2023-06-26T12:08:46;4;4;
76483;PMS5003;65318;-33.924;18.406;2023-06-26T12:11:12;4;4;
76483;PMS5003;65318;-33.924;18.406;2023-06-26T12:13:38;3;3;
76483;PMS5003;65318;-33.924;18.406;2023-06-26T12:16:03;5;4;
76483;PMS5003;65318;-33.924;18.406;2023-06-26T12:18:33;2;2;
76483;PMS5003;65318;-33.924;18.406;2023-06-26T12:20:54;5;5;
76483;PMS5003;65318;-33.924;18.406;2023-06-26T12:23:20;5;5;
76483;PMS5003;65318;-33.924;18.406;2023-06-26T12:25:45;3;3;
76483;PMS5003;65318;-33.924;18.406;2023-06-26T12:28:16;6;5;
76483;PMS5003;65318;-33.924;18.406;2023-06-26T12:30:36;6;6;
76483;PMS5003;65318;-33.924;18.406;2023-06-26T12:33:02;3;3;
76483;PMS5003;65318;-33.924;18.406;2023-06-26T12:35:27;7;7;
76483;PMS5003;65318;-33.924;18.406;2023-06-26T12:37:54;6;6;
76483;PMS5003;65318;-33.924;18.406;2023-06-26T12:40:19;5;5;
76483;PMS5003;65318;-33.924;18.406;2023-06-26T12:42:44;5;5;
76483;PMS5003;65318;-33.924;18.406;2023-06-26T12:45:11;5;4;
76483;PMS5003;65318;-33.924;18.406;2023-06-26T12:47:35;4;4;
76483;PMS5003;65318;-33.924;18.406;2023-06-26T12:50:04;5;4;
76483;PMS5003;65318;-33.924;18.406;2023-06-26T12:52:26;5;5;
76483;PMS5003;65318;-33.924;18.406;2023-06-26T12:54:52;5;4;
76483;PMS5003;65318;-33.924;18.406;2023-06-26T12:57:17;6;6;
76483;PMS5003;65318;-33.924;18.406;2023-06-26T12:59:42;3;3;
76483;PMS5003;65318;-33.924;18.406;2023-06-26T13:02:08;4;4;
76483;PMS5003;65318;-33.924;18.406;2023-06-26T13:04:33;5;5;
76483;PMS5003;65318;-33.924;18.406;2023-06-26T13:06:59;5;5;
76483;PMS5003;65318;-33.924;18.406;2023-06-26T13:09:25;5;5;
76483;PMS5003;65318;-33.924;18.406;2023-06-26T13:11:50;4;4;
76483;PMS5003;65318;-33.924;18.406;2023-06-26T13:14:15;7;6;
76483;PMS5003;65318;-33.924;18.406;2023-06-26T13:16:41;6;6;
76483;PMS5003;65318;-33.924;18.406;2023-06-26T13:19:06;6;6;
76483;PMS5003;65318;-33.924;18.406;2023-06-26T13:21:32;6;4;
76483;PMS5003;65318;-33.924;18.406;2023-06-26T13:23:57;6;5;
76483;PMS5003;65318;-33.924;18.406;2023-06-26T13:26:23;6;6;
76483;PMS5003;65318;-33.924;18.406;2023-06-26T13:28:48;4;4;
76483;PMS5003;65318;-33.924;18.406;2023-06-26T13:31:14;6;6;
76483;PMS5003;65318;-33.924;18.406;2023-06-26T13:33:40;6;6;
76483;PMS5003;65318;-33.924;18.406;2023-06-26T13:36:05;7;7;
76483;PMS5003;65318;-33.924;18.406;2023-06-26T13:38:32;7;7;
76483;PMS5003;65318;-33.924;18.406;2023-06-26T13:40:56;7;5;
76483;PMS5003;65318;-33.924;18.406;2023-06-26T13:43:21;6;5;
76483;PMS5003;65318;-33.924;18.406;2023-06-26T13:45:47;7;7;
76483;PMS5003;65318;-33.924;18.406;2023-06-26T13:50:38;6;6;
76483;PMS5003;65318;-33.924;18.406;2023-06-26T13:53:03;6;5;
76483;PMS5003;65318;-33.924;18.406;2023-06-26T13:55:29;8;7;
76483;PMS5003;65318;-33.924;18.406;2023-06-26T13:57:54;11;10;
76483;PMS5003;65318;-33.924;18.406;2023-06-26T14:00:20;7;6;
76483;PMS5003;65318;-33.924;18.406;2023-06-26T14:02:45;8;8;
76483;PMS5003;65318;-33.924;18.406;2023-06-26T14:05:11;6;5;
76483;PMS5003;65318;-33.924;18.406;2023-06-26T14:07:36;8;8;
76483;PMS5003;65318;-33.924;18.406;2023-06-26T14:10:01;5;5;
76483;PMS5003;65318;-33.924;18.406;2023-06-26T14:12:27;7;7;
76483;PMS5003;65318;-33.924;18.406;2023-06-26T14:14:52;8;7;
76483;PMS5003;65318;-33.924;18.406;2023-06-26T14:17:18;8;7;
76483;PMS5003;65318;-33.924;18.406;2023-06-26T14:19:43;10;9;
76483;PMS5003;65318;-33.924;18.406;2023-06-26T14:22:08;9;8;
76483;PMS5003;65318;-33.924;18.406;2023-06-26T14:24:34;5;5;
76483;PMS5003;65318;-33.924;18.406;2023-06-26T14:26:59;8;7;
76483;PMS5003;65318;-33.924;18.406;2023-06-26T14:29:25;10;9;
76483;PMS5003;65318;-33.924;18.406;2023-06-26T14:31:50;7;7;
76483;PMS5003;65318;-33.924;18.406;2023-06-26T14:34:16;8;7;
76483;PMS5003;65318;-33.924;18.406;2023-06-26T14:36:41;9;7;
76483;PMS5003;65318;-33.924;18.406;2023-06-26T14:39:06;5;5;
76483;PMS5003;65318;-33.924;18.406;2023-06-26T14:41:31;9;9;
76483;PMS5003;65318;-33.924;18.406;2023-06-26T14:43:57;9;8;
76483;PMS5003;65318;-33.924;18.406;2023-06-26T14:46:23;8;7;
76483;PMS5003;65318;-33.924;18.406;2023-06-26T14:48:48;9;8;
76483;PMS5003;65318;-33.924;18.406;2023-06-26T14:51:14;9;8;
76483;PMS5003;65318;-33.924;18.406;2023-06-26T14:53:39;9;8;
76483;PMS5003;65318;-33.924;18.406;2023-06-26T14:56:05;8;7;
76483;PMS5003;65318;-33.924;18.406;2023-06-26T14:58:30;8;7;
76483;PMS5003;65318;-33.924;18.406;2023-06-26T15:00:56;7;7;
76483;PMS5003;65318;-33.924;18.406;2023-06-26T15:03:21;9;9;
76483;PMS5003;65318;-33.924;18.406;2023-06-26T15:05:47;8;7;
76483;PMS5003;65318;-33.924;18.406;2023-06-26T15:08:12;11;9;
76483;PMS5003;65318;-33.924;18.406;2023-06-26T15:10:37;10;9;
76483;PMS5003;65318;-33.924;18.406;2023-06-26T15:13:03;8;8;
76483;PMS5003;65318;-33.924;18.406;2023-06-26T15:15:28;10;10;
76483;PMS5003;65318;-33.924;18.406;2023-06-26T15:17:54;8;8;
76483;PMS5003;65318;-33.924;18.406;2023-06-26T15:20:20;14;12;
76483;PMS5003;65318;-33.924;18.406;2023-06-26T15:22:45;10;8;
76483;PMS5003;65318;-33.924;18.406;2023-06-26T15:25:10;10;9;
76483;PMS5003;65318;-33.924;18.406;2023-06-26T15:27:36;8;8;
76483;PMS5003;65318;-33.924;18.406;2023-06-26T15:30:02;8;7;
76483;PMS5003;65318;-33.924;18.406;2023-06-26T15:32:27;10;9;
76483;PMS5003;65318;-33.924;18.406;2023-06-26T15:34:52;9;9;
76483;PMS5003;65318;-33.924;18.406;2023-06-26T15:37:18;8;8;
76483;PMS5003;65318;-33.924;18.406;2023-06-26T15:39:44;12;10;
76483;PMS5003;65318;-33.924;18.406;2023-06-26T15:42:09;8;7;
76483;PMS5003;65318;-33.924;18.406;2023-06-26T15:44:35;11;10;
76483;PMS5003;65318;-33.924;18.406;2023-06-26T15:47:00;12;9;
76483;PMS5003;65318;-33.924;18.406;2023-06-26T15:49:25;10;10;
76483;PMS5003;65318;-33.924;18.406;2023-06-26T15:51:51;13;12;
76483;PMS5003;65318;-33.924;18.406;2023-06-26T15:54:16;8;8;
76483;PMS5003;65318;-33.924;18.406;2023-06-26T15:56:41;11;11;
76483;PMS5003;65318;-33.924;18.406;2023-06-26T15:59:06;15;14;
76483;PMS5003;65318;-33.924;18.406;2023-06-26T16:01:32;16;16;
76483;PMS5003;65318;-33.924;18.406;2023-06-26T16:03:57;15;14;
76483;PMS5003;65318;-33.924;18.406;2023-06-26T16:06:22;19;18;
76483;PMS5003;65318;-33.924;18.406;2023-06-26T16:08:53;22;19;
76483;PMS5003;65318;-33.924;18.406;2023-06-26T16:11:13;19;17;
76483;PMS5003;65318;-33.924;18.406;2023-06-26T16:13:39;23;20;
76483;PMS5003;65318;-33.924;18.406;2023-06-26T16:16:04;19;19;
76483;PMS5003;65318;-33.924;18.406;2023-06-26T16:18:30;20;19;